sensor_id;sensor_type;location;lat;lon;timestamp;P1;durP1;ratioP1;P2;durP2;ratioP2
6354;SDS011;3210;48.708;9.030;2022-12-18T00:01:56;31.43;;;9.83;;
6354;SDS011;3210;48.708;9.030;2022-12-18T00:04:27;28.97;;;8.90;;
6354;SDS011;3210;48.708;9.030;2022-12-18T00:06:54;18.70;;;9.17;;
6354;SDS011;3210;48.708;9.030;2022-12-18T00:09:20;24.57;;;9.33;;
6354;SDS011;3210;48.708;9.030;2022-12-18T00:11:47;21.87;;;9.80;;
6354;SDS011;3210;48.708;9.030;2022-12-18T00:14:16;28.10;;;9.20;;
6354;SDS011;3210;48.708;9.030;2022-12-18T00:16:43;12.33;;;6.40;;
6354;SDS011;3210;48.708;9.030;2022-12-18T00:19:11;26.00;;;7.33;;
6354;SDS011;3210;48.708;9.030;2022-12-18T00:21:40;31.00;;;8.40;;
6354;SDS011;3210;48.708;9.030;2022-12-18T00:24:08;13.83;;;8.10;;
6354;SDS011;3210;48.708;9.030;2022-12-18T00:26:35;14.90;;;8.30;;
6354;SDS011;3210;48.708;9.030;2022-12-18T00:29:04;14.90;;;7.90;;
6354;SDS011;3210;48.708;9.030;2022-12-18T00:31:34;15.53;;;7.97;;
6354;SDS011;3210;48.708;9.030;2022-12-18T00:34:01;12.93;;;6.77;;
6354;SDS011;3210;48.708;9.030;2022-12-18T00:36:29;18.03;;;8.57;;
6354;SDS011;3210;48.708;9.030;2022-12-18T00:38:58;19.33;;;8.30;;
6354;SDS011;3210;48.708;9.030;2022-12-18T00:41:26;24.97;;;9.00;;
6354;SDS011;3210;48.708;9.030;2022-12-18T00:44:11;22.37;;;9.00;;
6354;SDS011;3210;48.708;9.030;2022-12-18T00:46:42;18.90;;;8.30;;
6354;SDS011;3210;48.708;9.030;2022-12-18T00:49:09;18.37;;;9.80;;
6354;SDS011;3210;48.708;9.030;2022-12-18T00:51:36;23.83;;;9.27;;
6354;SDS011;3210;48.708;9.030;2022-12-18T00:54:03;21.17;;;8.90;;
6354;SDS011;3210;48.708;9.030;2022-12-18T00:56:30;27.17;;;9.10;;
6354;SDS011;3210;48.708;9.030;2022-12-18T00:58:57;21.37;;;9.53;;
6354;SDS011;3210;48.708;9.030;2022-12-18T01:01:23;22.00;;;9.07;;
6354;SDS011;3210;48.708;9.030;2022-12-18T01:03:52;16.57;;;7.83;;
6354;SDS011;3210;48.708;9.030;2022-12-18T01:06:18;21.10;;;9.73;;
6354;SDS011;3210;48.708;9.030;2022-12-18T01:08:45;24.47;;;9.10;;
6354;SDS011;3210;48.708;9.030;2022-12-18T01:11:13;25.73;;;9.60;;
6354;SDS011;3210;48.708;9.030;2022-12-18T01:13:42;38.03;;;8.60;;
6354;SDS011;3210;48.708;9.030;2022-12-18T01:16:11;14.40;;;6.87;;
6354;SDS011;3210;48.708;9.030;2022-12-18T01:18:38;16.43;;;7.47;;
6354;SDS011;3210;48.708;9.030;2022-12-18T01:21:07;10.77;;;6.37;;
6354;SDS011;3210;48.708;9.030;2022-12-18T01:23:35;26.63;;;7.60;;
6354;SDS011;3210;48.708;9.030;2022-12-18T01:26:06;26.27;;;7.40;;
6354;SDS011;3210;48.708;9.030;2022-12-18T01:28:33;12.90;;;5.90;;
6354;SDS011;3210;48.708;9.030;2022-12-18T01:31:14;15.77;;;8.43;;
6354;SDS011;3210;48.708;9.030;2022-12-18T01:33:43;24.13;;;8.30;;
6354;SDS011;3210;48.708;9.030;2022-12-18T01:36:16;22.03;;;9.93;;
6354;SDS011;3210;48.708;9.030;2022-12-18T01:38:45;15.37;;;6.70;;
6354;SDS011;3210;48.708;9.030;2022-12-18T01:41:12;18.90;;;9.37;;
6354;SDS011;3210;48.708;9.030;2022-12-18T01:43:47;16.87;;;6.37;;
6354;SDS011;3210;48.708;9.030;2022-12-18T01:46:16;19.30;;;7.27;;
6354;SDS011;3210;48.708;9.030;2022-12-18T01:48:44;22.27;;;8.13;;
6354;SDS011;3210;48.708;9.030;2022-12-18T01:51:13;16.27;;;7.73;;
6354;SDS011;3210;48.708;9.030;2022-12-18T01:53:42;19.43;;;8.87;;
6354;SDS011;3210;48.708;9.030;2022-12-18T01:56:12;18.53;;;7.27;;
6354;SDS011;3210;48.708;9.030;2022-12-18T01:58:43;21.07;;;8.77;;
6354;SDS011;3210;48.708;9.030;2022-12-18T02:01:16;16.20;;;8.17;;
6354;SDS011;3210;48.708;9.030;2022-12-18T02:03:43;17.63;;;8.70;;
6354;SDS011;3210;48.708;9.030;2022-12-18T02:06:13;20.50;;;8.97;;
6354;SDS011;3210;48.708;9.030;2022-12-18T02:08:48;19.63;;;8.30;;
6354;SDS011;3210;48.708;9.030;2022-12-18T02:11:28;15.93;;;8.53;;
6354;SDS011;3210;48.708;9.030;2022-12-18T02:14:03;15.23;;;7.50;;
6354;SDS011;3210;48.708;9.030;2022-12-18T02:16:39;20.43;;;8.80;;
6354;SDS011;3210;48.708;9.030;2022-12-18T02:19:16;15.33;;;6.33;;
6354;SDS011;3210;48.708;9.030;2022-12-18T02:21:55;19.97;;;8.73;;
6354;SDS011;3210;48.708;9.030;2022-12-18T02:24:33;24.20;;;10.50;;
6354;SDS011;3210;48.708;9.030;2022-12-18T02:27:09;16.07;;;9.30;;
6354;SDS011;3210;48.708;9.030;2022-12-18T02:29:39;22.97;;;10.50;;
6354;SDS011;3210;48.708;9.030;2022-12-18T02:32:11;29.83;;;8.83;;
6354;SDS011;3210;48.708;9.030;2022-12-18T02:34:42;15.13;;;8.30;;
6354;SDS011;3210;48.708;9.030;2022-12-18T02:37:10;18.33;;;8.07;;
6354;SDS011;3210;48.708;9.030;2022-12-18T02:39:41;18.47;;;7.33;;
6354;SDS011;3210;48.708;9.030;2022-12-18T02:42:11;29.47;;;9.50;;
6354;SDS011;3210;48.708;9.030;2022-12-18T02:44:42;25.97;;;9.47;;
6354;SDS011;3210;48.708;9.030;2022-12-18T02:47:10;22.67;;;9.67;;
6354;SDS011;3210;48.708;9.030;2022-12-18T02:49:40;29.50;;;8.53;;
6354;SDS011;3210;48.708;9.030;2022-12-18T02:52:17;40.30;;;9.53;;
6354;SDS011;3210;48.708;9.030;2022-12-18T02:54:57;18.40;;;8.93;;
6354;SDS011;3210;48.708;9.030;2022-12-18T02:57:35;12.50;;;5.70;;
6354;SDS011;3210;48.708;9.030;2022-12-18T03:00:10;18.37;;;9.43;;
6354;SDS011;3210;48.708;9.030;2022-12-18T03:02:41;18.33;;;8.13;;
6354;SDS011;3210;48.708;9.030;2022-12-18T03:05:13;16.67;;;8.30;;
6354;SDS011;3210;48.708;9.030;2022-12-18T03:07:44;16.27;;;8.07;;
6354;SDS011;3210;48.708;9.030;2022-12-18T03:10:18;13.90;;;7.00;;
6354;SDS011;3210;48.708;9.030;2022-12-18T03:12:52;19.73;;;7.90;;
6354;SDS011;3210;48.708;9.030;2022-12-18T03:15:24;18.43;;;8.77;;
6354;SDS011;3210;48.708;9.030;2022-12-18T03:17:57;17.97;;;9.33;;
6354;SDS011;3210;48.708;9.030;2022-12-18T03:20:29;15.57;;;9.17;;
6354;SDS011;3210;48.708;9.030;2022-12-18T03:22:59;17.13;;;8.90;;
6354;SDS011;3210;48.708;9.030;2022-12-18T03:25:32;27.47;;;10.77;;
6354;SDS011;3210;48.708;9.030;2022-12-18T03:28:04;24.70;;;9.53;;
6354;SDS011;3210;48.708;9.030;2022-12-18T03:30:34;16.80;;;8.60;;
6354;SDS011;3210;48.708;9.030;2022-12-18T03:33:07;21.03;;;10.70;;
6354;SDS011;3210;48.708;9.030;2022-12-18T03:35:37;22.37;;;9.50;;
6354;SDS011;3210;48.708;9.030;2022-12-18T03:38:07;21.60;;;7.63;;
6354;SDS011;3210;48.708;9.030;2022-12-18T03:40:37;20.70;;;9.10;;
6354;SDS011;3210;48.708;9.030;2022-12-18T03:43:17;27.93;;;10.47;;
6354;SDS011;3210;48.708;9.030;2022-12-18T03:45:48;33.23;;;9.83;;
6354;SDS011;3210;48.708;9.030;2022-12-18T03:48:20;16.77;;;8.80;;
6354;SDS011;3210;48.708;9.030;2022-12-18T03:50:56;25.60;;;11.50;;
6354;SDS011;3210;48.708;9.030;2022-12-18T03:53:28;26.60;;;9.80;;
6354;SDS011;3210;48.708;9.030;2022-12-18T03:56:00;21.03;;;7.83;;
6354;SDS011;3210;48.708;9.030;2022-12-18T03:58:29;29.13;;;10.63;;
6354;SDS011;3210;48.708;9.030;2022-12-18T04:01:00;20.30;;;9.40;;
6354;SDS011;3210;48.708;9.030;2022-12-18T04:03:29;21.00;;;8.00;;
6354;SDS011;3210;48.708;9.030;2022-12-18T04:05:58;35.53;;;10.40;;
6354;SDS011;3210;48.708;9.030;2022-12-18T04:08:27;15.80;;;8.63;;
6354;SDS011;3210;48.708;9.030;2022-12-18T04:10:54;30.90;;;10.60;;
6354;SDS011;3210;48.708;9.030;2022-12-18T04:13:22;18.57;;;9.10;;
6354;SDS011;3210;48.708;9.030;2022-12-18T04:15:50;23.90;;;10.60;;
6354;SDS011;3210;48.708;9.030;2022-12-18T04:18:17;21.03;;;8.10;;
6354;SDS011;3210;48.708;9.030;2022-12-18T04:20:44;20.43;;;9.03;;
6354;SDS011;3210;48.708;9.030;2022-12-18T04:23:12;21.20;;;9.17;;
6354;SDS011;3210;48.708;9.030;2022-12-18T04:25:38;19.53;;;9.93;;
6354;SDS011;3210;48.708;9.030;2022-12-18T04:28:05;20.77;;;9.00;;
6354;SDS011;3210;48.708;9.030;2022-12-18T04:30:32;13.60;;;7.60;;
6354;SDS011;3210;48.708;9.030;2022-12-18T04:33:00;24.07;;;10.80;;
6354;SDS011;3210;48.708;9.030;2022-12-18T04:35:27;24.83;;;10.30;;
6354;SDS011;3210;48.708;9.030;2022-12-18T04:37:54;23.40;;;9.80;;
6354;SDS011;3210;48.708;9.030;2022-12-18T04:40:24;19.93;;;7.97;;
6354;SDS011;3210;48.708;9.030;2022-12-18T04:42:50;19.13;;;9.13;;
6354;SDS011;3210;48.708;9.030;2022-12-18T04:45:17;14.60;;;6.90;;
6354;SDS011;3210;48.708;9.030;2022-12-18T04:47:44;16.37;;;8.97;;
6354;SDS011;3210;48.708;9.030;2022-12-18T04:50:12;19.20;;;7.57;;
6354;SDS011;3210;48.708;9.030;2022-12-18T04:52:39;15.03;;;8.20;;
6354;SDS011;3210;48.708;9.030;2022-12-18T04:55:06;23.67;;;8.60;;
6354;SDS011;3210;48.708;9.030;2022-12-18T04:57:33;22.80;;;9.57;;
6354;SDS011;3210;48.708;9.030;2022-12-18T05:00:00;17.57;;;9.30;;
6354;SDS011;3210;48.708;9.030;2022-12-18T05:02:27;14.27;;;7.43;;
6354;SDS011;3210;48.708;9.030;2022-12-18T05:04:54;17.73;;;7.60;;
6354;SDS011;3210;48.708;9.030;2022-12-18T05:07:22;15.60;;;8.20;;
6354;SDS011;3210;48.708;9.030;2022-12-18T05:09:49;20.10;;;8.53;;
6354;SDS011;3210;48.708;9.030;2022-12-18T05:12:15;19.17;;;8.70;;
6354;SDS011;3210;48.708;9.030;2022-12-18T05:14:42;22.13;;;8.53;;
6354;SDS011;3210;48.708;9.030;2022-12-18T05:17:09;25.53;;;8.90;;
6354;SDS011;3210;48.708;9.030;2022-12-18T05:19:36;18.80;;;9.90;;
6354;SDS011;3210;48.708;9.030;2022-12-18T05:22:07;17.93;;;8.03;;
6354;SDS011;3210;48.708;9.030;2022-12-18T05:24:36;18.43;;;7.30;;
6354;SDS011;3210;48.708;9.030;2022-12-18T05:27:02;18.80;;;7.53;;
6354;SDS011;3210;48.708;9.030;2022-12-18T05:29:29;20.23;;;8.97;;
6354;SDS011;3210;48.708;9.030;2022-12-18T05:31:56;16.53;;;7.80;;
6354;SDS011;3210;48.708;9.030;2022-12-18T05:34:23;17.77;;;8.10;;
6354;SDS011;3210;48.708;9.030;2022-12-18T05:36:50;14.27;;;6.57;;
6354;SDS011;3210;48.708;9.030;2022-12-18T05:39:17;14.17;;;8.50;;
6354;SDS011;3210;48.708;9.030;2022-12-18T05:41:45;20.03;;;8.50;;
6354;SDS011;3210;48.708;9.030;2022-12-18T05:44:12;22.77;;;9.80;;
6354;SDS011;3210;48.708;9.030;2022-12-18T05:46:38;16.17;;;8.27;;
6354;SDS011;3210;48.708;9.030;2022-12-18T05:49:05;24.47;;;10.07;;
6354;SDS011;3210;48.708;9.030;2022-12-18T05:51:32;15.70;;;7.33;;
6354;SDS011;3210;48.708;9.030;2022-12-18T05:53:59;20.53;;;9.90;;
6354;SDS011;3210;48.708;9.030;2022-12-18T05:56:26;14.20;;;6.77;;
6354;SDS011;3210;48.708;9.030;2022-12-18T05:58:54;14.70;;;7.77;;
6354;SDS011;3210;48.708;9.030;2022-12-18T06:01:22;15.47;;;7.40;;
6354;SDS011;3210;48.708;9.030;2022-12-18T06:03:51;13.70;;;6.23;;
6354;SDS011;3210;48.708;9.030;2022-12-18T06:06:19;12.60;;;6.63;;
6354;SDS011;3210;48.708;9.030;2022-12-18T06:08:47;15.07;;;7.60;;
6354;SDS011;3210;48.708;9.030;2022-12-18T06:11:16;18.53;;;7.80;;
6354;SDS011;3210;48.708;9.030;2022-12-18T06:13:45;21.70;;;6.77;;
6354;SDS011;3210;48.708;9.030;2022-12-18T06:16:13;12.40;;;6.90;;
6354;SDS011;3210;48.708;9.030;2022-12-18T06:18:40;11.30;;;6.80;;
6354;SDS011;3210;48.708;9.030;2022-12-18T06:21:07;13.97;;;6.37;;
6354;SDS011;3210;48.708;9.030;2022-12-18T06:23:34;12.97;;;6.73;;
6354;SDS011;3210;48.708;9.030;2022-12-18T06:26:03;22.37;;;8.20;;
6354;SDS011;3210;48.708;9.030;2022-12-18T06:28:31;25.17;;;7.23;;
6354;SDS011;3210;48.708;9.030;2022-12-18T06:30:58;13.80;;;7.63;;
6354;SDS011;3210;48.708;9.030;2022-12-18T06:33:27;12.37;;;6.97;;
6354;SDS011;3210;48.708;9.030;2022-12-18T06:35:54;15.53;;;7.57;;
6354;SDS011;3210;48.708;9.030;2022-12-18T06:38:25;14.90;;;7.97;;
6354;SDS011;3210;48.708;9.030;2022-12-18T06:40:52;12.60;;;5.43;;
6354;SDS011;3210;48.708;9.030;2022-12-18T06:43:19;15.83;;;7.13;;
6354;SDS011;3210;48.708;9.030;2022-12-18T06:45:46;17.60;;;6.07;;
6354;SDS011;3210;48.708;9.030;2022-12-18T06:48:17;11.20;;;6.10;;
6354;SDS011;3210;48.708;9.030;2022-12-18T06:50:45;20.00;;;8.00;;
6354;SDS011;3210;48.708;9.030;2022-12-18T06:53:13;11.17;;;4.93;;
6354;SDS011;3210;48.708;9.030;2022-12-18T06:55:40;19.23;;;6.13;;
6354;SDS011;3210;48.708;9.030;2022-12-18T06:58:06;17.23;;;6.90;;
6354;SDS011;3210;48.708;9.030;2022-12-18T07:00:33;22.40;;;6.87;;
6354;SDS011;3210;48.708;9.030;2022-12-18T07:03:00;11.70;;;6.00;;
6354;SDS011;3210;48.708;9.030;2022-12-18T07:05:27;14.87;;;7.67;;
6354;SDS011;3210;48.708;9.030;2022-12-18T07:07:56;15.50;;;7.00;;
6354;SDS011;3210;48.708;9.030;2022-12-18T07:10:23;15.60;;;6.77;;
6354;SDS011;3210;48.708;9.030;2022-12-18T07:12:50;14.87;;;7.43;;
6354;SDS011;3210;48.708;9.030;2022-12-18T07:15:17;14.43;;;5.87;;
6354;SDS011;3210;48.708;9.030;2022-12-18T07:17:43;11.57;;;6.67;;
6354;SDS011;3210;48.708;9.030;2022-12-18T07:20:10;15.67;;;7.10;;
6354;SDS011;3210;48.708;9.030;2022-12-18T07:22:37;21.77;;;7.80;;
6354;SDS011;3210;48.708;9.030;2022-12-18T07:25:06;17.20;;;6.97;;
6354;SDS011;3210;48.708;9.030;2022-12-18T07:27:33;16.00;;;6.83;;
6354;SDS011;3210;48.708;9.030;2022-12-18T07:30:00;13.00;;;5.63;;
6354;SDS011;3210;48.708;9.030;2022-12-18T07:32:27;17.03;;;5.90;;
6354;SDS011;3210;48.708;9.030;2022-12-18T07:34:54;18.97;;;6.60;;
6354;SDS011;3210;48.708;9.030;2022-12-18T07:37:21;19.20;;;7.07;;
6354;SDS011;3210;48.708;9.030;2022-12-18T07:39:48;18.60;;;7.80;;
6354;SDS011;3210;48.708;9.030;2022-12-18T07:42:16;14.63;;;6.47;;
6354;SDS011;3210;48.708;9.030;2022-12-18T07:44:58;18.97;;;6.57;;
6354;SDS011;3210;48.708;9.030;2022-12-18T07:47:26;12.33;;;6.63;;
6354;SDS011;3210;48.708;9.030;2022-12-18T07:49:56;12.03;;;7.77;;
6354;SDS011;3210;48.708;9.030;2022-12-18T07:52:23;15.63;;;6.53;;
6354;SDS011;3210;48.708;9.030;2022-12-18T07:54:49;23.27;;;8.60;;
6354;SDS011;3210;48.708;9.030;2022-12-18T07:57:18;18.97;;;7.07;;
6354;SDS011;3210;48.708;9.030;2022-12-18T07:59:44;16.97;;;6.87;;
6354;SDS011;3210;48.708;9.030;2022-12-18T08:02:11;13.60;;;6.47;;
6354;SDS011;3210;48.708;9.030;2022-12-18T08:04:38;9.63;;;6.57;;
6354;SDS011;3210;48.708;9.030;2022-12-18T08:07:05;16.70;;;8.57;;
6354;SDS011;3210;48.708;9.030;2022-12-18T08:09:32;26.20;;;10.70;;
6354;SDS011;3210;48.708;9.030;2022-12-18T08:11:59;20.07;;;8.73;;
6354;SDS011;3210;48.708;9.030;2022-12-18T08:14:27;17.13;;;6.63;;
6354;SDS011;3210;48.708;9.030;2022-12-18T08:16:54;20.50;;;8.73;;
6354;SDS011;3210;48.708;9.030;2022-12-18T08:19:20;18.63;;;8.53;;
6354;SDS011;3210;48.708;9.030;2022-12-18T08:21:47;38.47;;;12.50;;
6354;SDS011;3210;48.708;9.030;2022-12-18T08:24:14;25.13;;;10.97;;
6354;SDS011;3210;48.708;9.030;2022-12-18T08:26:41;13.73;;;8.00;;
6354;SDS011;3210;48.708;9.030;2022-12-18T08:29:08;25.77;;;12.17;;
6354;SDS011;3210;48.708;9.030;2022-12-18T08:31:37;22.70;;;10.00;;
6354;SDS011;3210;48.708;9.030;2022-12-18T08:34:04;28.93;;;10.10;;
6354;SDS011;3210;48.708;9.030;2022-12-18T08:36:31;26.90;;;10.90;;
6354;SDS011;3210;48.708;9.030;2022-12-18T08:38:57;24.03;;;10.47;;
6354;SDS011;3210;48.708;9.030;2022-12-18T08:41:24;22.73;;;9.43;;
6354;SDS011;3210;48.708;9.030;2022-12-18T08:43:51;51.80;;;9.90;;
6354;SDS011;3210;48.708;9.030;2022-12-18T08:46:37;24.83;;;9.13;;
6354;SDS011;3210;48.708;9.030;2022-12-18T08:49:06;33.73;;;10.70;;
6354;SDS011;3210;48.708;9.030;2022-12-18T08:51:34;21.13;;;10.27;;
6354;SDS011;3210;48.708;9.030;2022-12-18T08:54:01;21.87;;;9.93;;
6354;SDS011;3210;48.708;9.030;2022-12-18T08:56:28;21.57;;;10.57;;
6354;SDS011;3210;48.708;9.030;2022-12-18T08:58:56;24.13;;;11.40;;
6354;SDS011;3210;48.708;9.030;2022-12-18T09:01:23;30.43;;;10.60;;
6354;SDS011;3210;48.708;9.030;2022-12-18T09:03:52;21.07;;;9.60;;
6354;SDS011;3210;48.708;9.030;2022-12-18T09:06:20;35.20;;;12.30;;
6354;SDS011;3210;48.708;9.030;2022-12-18T09:08:48;25.70;;;12.40;;
6354;SDS011;3210;48.708;9.030;2022-12-18T09:11:15;28.80;;;13.47;;
6354;SDS011;3210;48.708;9.030;2022-12-18T09:13:47;24.27;;;11.90;;
6354;SDS011;3210;48.708;9.030;2022-12-18T09:16:14;36.23;;;15.30;;
6354;SDS011;3210;48.708;9.030;2022-12-18T09:18:41;26.63;;;12.80;;
6354;SDS011;3210;48.708;9.030;2022-12-18T09:21:10;27.03;;;13.00;;
6354;SDS011;3210;48.708;9.030;2022-12-18T09:23:37;30.80;;;11.23;;
6354;SDS011;3210;48.708;9.030;2022-12-18T09:26:04;36.43;;;13.03;;
6354;SDS011;3210;48.708;9.030;2022-12-18T09:28:31;32.37;;;13.73;;
6354;SDS011;3210;48.708;9.030;2022-12-18T09:30:58;34.00;;;14.50;;
6354;SDS011;3210;48.708;9.030;2022-12-18T09:33:29;36.20;;;13.87;;
6354;SDS011;3210;48.708;9.030;2022-12-18T09:35:55;35.07;;;14.13;;
6354;SDS011;3210;48.708;9.030;2022-12-18T09:38:23;33.80;;;13.67;;
6354;SDS011;3210;48.708;9.030;2022-12-18T09:40:51;30.37;;;13.23;;
6354;SDS011;3210;48.708;9.030;2022-12-18T09:43:20;30.47;;;12.67;;
6354;SDS011;3210;48.708;9.030;2022-12-18T09:45:51;29.13;;;13.17;;
6354;SDS011;3210;48.708;9.030;2022-12-18T09:48:22;29.93;;;14.37;;
6354;SDS011;3210;48.708;9.030;2022-12-18T09:50:52;29.80;;;12.27;;
6354;SDS011;3210;48.708;9.030;2022-12-18T09:53:26;25.83;;;13.00;;
6354;SDS011;3210;48.708;9.030;2022-12-18T09:55:57;28.57;;;11.87;;
6354;SDS011;3210;48.708;9.030;2022-12-18T09:58:26;28.03;;;12.10;;
6354;SDS011;3210;48.708;9.030;2022-12-18T10:00:57;35.17;;;14.67;;
6354;SDS011;3210;48.708;9.030;2022-12-18T10:03:25;31.40;;;13.60;;
6354;SDS011;3210;48.708;9.030;2022-12-18T10:05:55;29.27;;;12.47;;
6354;SDS011;3210;48.708;9.030;2022-12-18T10:08:32;32.30;;;13.70;;
6354;SDS011;3210;48.708;9.030;2022-12-18T10:11:12;28.63;;;13.63;;
6354;SDS011;3210;48.708;9.030;2022-12-18T10:13:54;30.13;;;14.27;;
6354;SDS011;3210;48.708;9.030;2022-12-18T10:16:27;32.47;;;14.70;;
6354;SDS011;3210;48.708;9.030;2022-12-18T10:19:10;35.90;;;13.80;;
6354;SDS011;3210;48.708;9.030;2022-12-18T10:21:47;30.20;;;14.00;;
6354;SDS011;3210;48.708;9.030;2022-12-18T10:24:24;32.73;;;13.63;;
6354;SDS011;3210;48.708;9.030;2022-12-18T10:26:59;29.97;;;14.03;;
6354;SDS011;3210;48.708;9.030;2022-12-18T10:29:38;28.97;;;13.20;;
6354;SDS011;3210;48.708;9.030;2022-12-18T10:32:04;22.90;;;11.53;;
6354;SDS011;3210;48.708;9.030;2022-12-18T10:34:33;31.53;;;12.10;;
6354;SDS011;3210;48.708;9.030;2022-12-18T10:37:00;29.53;;;12.23;;
6354;SDS011;3210;48.708;9.030;2022-12-18T10:39:29;31.60;;;13.70;;
6354;SDS011;3210;48.708;9.030;2022-12-18T10:41:59;28.83;;;12.97;;
6354;SDS011;3210;48.708;9.030;2022-12-18T10:44:36;32.20;;;14.37;;
6354;SDS011;3210;48.708;9.030;2022-12-18T10:47:04;26.23;;;13.20;;
6354;SDS011;3210;48.708;9.030;2022-12-18T10:49:37;37.27;;;14.00;;
6354;SDS011;3210;48.708;9.030;2022-12-18T10:52:12;40.07;;;14.20;;
6354;SDS011;3210;48.708;9.030;2022-12-18T10:54:47;28.70;;;13.07;;
6354;SDS011;3210;48.708;9.030;2022-12-18T10:57:16;38.23;;;14.37;;
6354;SDS011;3210;48.708;9.030;2022-12-18T10:59:56;30.57;;;12.80;;
6354;SDS011;3210;48.708;9.030;2022-12-18T11:02:25;35.63;;;13.10;;
6354;SDS011;3210;48.708;9.030;2022-12-18T11:04:53;33.10;;;12.40;;
6354;SDS011;3210;48.708;9.030;2022-12-18T11:07:20;27.93;;;12.10;;
6354;SDS011;3210;48.708;9.030;2022-12-18T11:09:59;23.40;;;11.53;;
6354;SDS011;3210;48.708;9.030;2022-12-18T11:12:28;25.40;;;12.60;;
6354;SDS011;3210;48.708;9.030;2022-12-18T11:14:56;30.10;;;12.80;;
6354;SDS011;3210;48.708;9.030;2022-12-18T11:17:25;26.47;;;12.57;;
6354;SDS011;3210;48.708;9.030;2022-12-18T11:19:56;27.60;;;12.13;;
6354;SDS011;3210;48.708;9.030;2022-12-18T11:22:24;25.60;;;12.47;;
6354;SDS011;3210;48.708;9.030;2022-12-18T11:24:55;27.73;;;12.87;;
6354;SDS011;3210;48.708;9.030;2022-12-18T11:27:24;25.53;;;12.70;;
6354;SDS011;3210;48.708;9.030;2022-12-18T11:29:52;31.03;;;13.53;;
6354;SDS011;3210;48.708;9.030;2022-12-18T11:32:27;27.97;;;12.67;;
6354;SDS011;3210;48.708;9.030;2022-12-18T11:35:01;26.53;;;12.93;;
6354;SDS011;3210;48.708;9.030;2022-12-18T11:37:34;26.77;;;11.27;;
6354;SDS011;3210;48.708;9.030;2022-12-18T11:40:05;27.47;;;12.47;;
6354;SDS011;3210;48.708;9.030;2022-12-18T11:42:41;34.53;;;14.17;;
6354;SDS011;3210;48.708;9.030;2022-12-18T11:45:27;29.73;;;13.40;;
6354;SDS011;3210;48.708;9.030;2022-12-18T11:47:57;33.23;;;13.07;;
6354;SDS011;3210;48.708;9.030;2022-12-18T11:50:29;27.57;;;13.17;;
6354;SDS011;3210;48.708;9.030;2022-12-18T11:53:00;37.10;;;14.70;;
6354;SDS011;3210;48.708;9.030;2022-12-18T11:55:31;38.80;;;15.50;;
6354;SDS011;3210;48.708;9.030;2022-12-18T11:58:05;43.23;;;16.60;;
6354;SDS011;3210;48.708;9.030;2022-12-18T12:00:41;31.93;;;13.80;;
6354;SDS011;3210;48.708;9.030;2022-12-18T12:03:29;32.40;;;14.63;;
6354;SDS011;3210;48.708;9.030;2022-12-18T12:06:17;31.30;;;12.40;;
6354;SDS011;3210;48.708;9.030;2022-12-18T12:08:53;28.07;;;12.60;;
6354;SDS011;3210;48.708;9.030;2022-12-18T12:11:32;34.93;;;11.80;;
6354;SDS011;3210;48.708;9.030;2022-12-18T12:14:13;27.37;;;13.20;;
6354;SDS011;3210;48.708;9.030;2022-12-18T12:16:51;30.10;;;13.10;;
6354;SDS011;3210;48.708;9.030;2022-12-18T12:19:27;31.37;;;14.00;;
6354;SDS011;3210;48.708;9.030;2022-12-18T12:22:03;33.50;;;13.77;;
6354;SDS011;3210;48.708;9.030;2022-12-18T12:24:38;37.50;;;14.57;;
6354;SDS011;3210;48.708;9.030;2022-12-18T12:27:17;31.07;;;13.37;;
6354;SDS011;3210;48.708;9.030;2022-12-18T12:29:55;31.87;;;13.10;;
6354;SDS011;3210;48.708;9.030;2022-12-18T12:32:36;32.00;;;12.60;;
6354;SDS011;3210;48.708;9.030;2022-12-18T12:35:19;34.77;;;12.90;;
6354;SDS011;3210;48.708;9.030;2022-12-18T12:37:56;30.03;;;12.50;;
6354;SDS011;3210;48.708;9.030;2022-12-18T12:40:32;30.90;;;14.27;;
6354;SDS011;3210;48.708;9.030;2022-12-18T12:43:03;38.50;;;14.20;;
6354;SDS011;3210;48.708;9.030;2022-12-18T12:45:41;31.87;;;13.90;;
6354;SDS011;3210;48.708;9.030;2022-12-18T12:48:19;39.30;;;14.60;;
6354;SDS011;3210;48.708;9.030;2022-12-18T12:50:53;27.70;;;15.27;;
6354;SDS011;3210;48.708;9.030;2022-12-18T12:53:23;34.27;;;15.67;;
6354;SDS011;3210;48.708;9.030;2022-12-18T12:55:55;37.37;;;14.20;;
6354;SDS011;3210;48.708;9.030;2022-12-18T12:58:26;30.80;;;13.47;;
6354;SDS011;3210;48.708;9.030;2022-12-18T13:01:01;29.63;;;13.47;;
6354;SDS011;3210;48.708;9.030;2022-12-18T13:03:41;40.83;;;15.33;;
6354;SDS011;3210;48.708;9.030;2022-12-18T13:06:16;33.43;;;15.23;;
6354;SDS011;3210;48.708;9.030;2022-12-18T13:08:52;32.30;;;12.83;;
6354;SDS011;3210;48.708;9.030;2022-12-18T13:11:31;34.57;;;15.10;;
6354;SDS011;3210;48.708;9.030;2022-12-18T13:14:21;31.20;;;13.80;;
6354;SDS011;3210;48.708;9.030;2022-12-18T13:16:52;33.10;;;13.87;;
6354;SDS011;3210;48.708;9.030;2022-12-18T13:19:43;32.70;;;15.37;;
6354;SDS011;3210;48.708;9.030;2022-12-18T13:22:20;32.07;;;15.10;;
6354;SDS011;3210;48.708;9.030;2022-12-18T13:24:48;39.60;;;15.17;;
6354;SDS011;3210;48.708;9.030;2022-12-18T13:30:46;30.03;;;13.93;;
6354;SDS011;3210;48.708;9.030;2022-12-18T13:36:09;38.63;;;14.57;;
6354;SDS011;3210;48.708;9.030;2022-12-18T13:38:40;34.53;;;12.87;;
6354;SDS011;3210;48.708;9.030;2022-12-18T13:41:24;34.40;;;13.47;;
6354;SDS011;3210;48.708;9.030;2022-12-18T13:43:53;35.70;;;14.30;;
6354;SDS011;3210;48.708;9.030;2022-12-18T13:46:25;36.87;;;16.33;;
6354;SDS011;3210;48.708;9.030;2022-12-18T13:48:55;33.37;;;14.57;;
6354;SDS011;3210;48.708;9.030;2022-12-18T13:51:25;38.00;;;14.27;;
6354;SDS011;3210;48.708;9.030;2022-12-18T13:53:53;31.20;;;13.60;;
6354;SDS011;3210;48.708;9.030;2022-12-18T13:56:24;36.23;;;15.90;;
6354;SDS011;3210;48.708;9.030;2022-12-18T14:01:44;32.37;;;15.20;;
6354;SDS011;3210;48.708;9.030;2022-12-18T14:04:16;29.83;;;14.07;;
6354;SDS011;3210;48.708;9.030;2022-12-18T14:06:49;41.03;;;16.17;;
6354;SDS011;3210;48.708;9.030;2022-12-18T14:09:19;39.53;;;16.63;;
6354;SDS011;3210;48.708;9.030;2022-12-18T14:11:51;32.93;;;13.97;;
6354;SDS011;3210;48.708;9.030;2022-12-18T14:14:40;35.07;;;17.00;;
6354;SDS011;3210;48.708;9.030;2022-12-18T14:17:09;30.10;;;15.40;;
6354;SDS011;3210;48.708;9.030;2022-12-18T14:19:40;31.20;;;13.90;;
6354;SDS011;3210;48.708;9.030;2022-12-18T14:22:12;34.30;;;15.20;;
6354;SDS011;3210;48.708;9.030;2022-12-18T14:24:42;33.67;;;14.10;;
6354;SDS011;3210;48.708;9.030;2022-12-18T14:27:12;35.00;;;15.90;;
6354;SDS011;3210;48.708;9.030;2022-12-18T14:29:47;35.63;;;14.70;;
6354;SDS011;3210;48.708;9.030;2022-12-18T14:32:16;36.73;;;15.60;;
6354;SDS011;3210;48.708;9.030;2022-12-18T14:34:44;33.00;;;15.67;;
6354;SDS011;3210;48.708;9.030;2022-12-18T14:37:12;41.90;;;15.17;;
6354;SDS011;3210;48.708;9.030;2022-12-18T14:39:41;34.30;;;15.23;;
6354;SDS011;3210;48.708;9.030;2022-12-18T14:42:19;36.00;;;16.30;;
6354;SDS011;3210;48.708;9.030;2022-12-18T14:44:46;42.57;;;15.33;;
6354;SDS011;3210;48.708;9.030;2022-12-18T14:47:13;32.73;;;16.00;;
6354;SDS011;3210;48.708;9.030;2022-12-18T14:49:42;39.80;;;16.80;;
6354;SDS011;3210;48.708;9.030;2022-12-18T14:52:16;40.13;;;15.37;;
6354;SDS011;3210;48.708;9.030;2022-12-18T14:54:48;42.93;;;17.17;;
6354;SDS011;3210;48.708;9.030;2022-12-18T14:57:18;32.17;;;14.93;;
6354;SDS011;3210;48.708;9.030;2022-12-18T14:59:48;42.23;;;16.90;;
6354;SDS011;3210;48.708;9.030;2022-12-18T15:02:18;40.97;;;16.70;;
6354;SDS011;3210;48.708;9.030;2022-12-18T15:04:48;40.70;;;16.43;;
6354;SDS011;3210;48.708;9.030;2022-12-18T15:07:26;35.70;;;16.50;;
6354;SDS011;3210;48.708;9.030;2022-12-18T15:10:03;38.50;;;16.23;;
6354;SDS011;3210;48.708;9.030;2022-12-18T15:12:37;49.53;;;16.33;;
6354;SDS011;3210;48.708;9.030;2022-12-18T15:18:11;45.93;;;17.53;;
6354;SDS011;3210;48.708;9.030;2022-12-18T15:20:42;37.00;;;15.87;;
6354;SDS011;3210;48.708;9.030;2022-12-18T15:23:18;39.17;;;14.40;;
6354;SDS011;3210;48.708;9.030;2022-12-18T15:25:47;47.13;;;17.70;;
6354;SDS011;3210;48.708;9.030;2022-12-18T15:28:21;40.63;;;16.07;;